createdAt,value
2023-10-15T00:00:35.832Z,0.80
2023-10-15T00:03:04.370Z,1.10
2023-10-15T00:05:32.414Z,1.10
2023-10-15T00:07:59.606Z,0.90
2023-10-15T00:10:27.648Z,1.00
2023-10-15T00:12:55.608Z,1.30
2023-10-15T00:15:25.108Z,0.75
2023-10-15T00:17:53.758Z,0.85
2023-10-15T00:20:21.997Z,0.75
2023-10-15T00:22:50.260Z,0.70
2023-10-15T00:25:19.382Z,0.80
2023-10-15T00:27:57.956Z,1.05
2023-10-15T00:30:35.358Z,0.80
2023-10-15T00:33:12.473Z,0.82
2023-10-15T00:35:41.429Z,0.75
2023-10-15T00:38:08.875Z,1.13
2023-10-15T00:40:38.780Z,0.93
2023-10-15T00:43:08.216Z,0.98
2023-10-15T00:45:37.344Z,0.85
2023-10-15T00:48:04.659Z,0.90
2023-10-15T00:50:36.982Z,0.70
2023-10-15T00:53:07.420Z,0.70
2023-10-15T00:55:38.158Z,0.85
2023-10-15T00:58:09.630Z,0.80
2023-10-15T01:00:53.741Z,0.77
2023-10-15T01:03:27.819Z,1.08
2023-10-15T01:05:55.306Z,0.52
2023-10-15T01:08:32.524Z,0.60
2023-10-15T01:11:21.506Z,0.60
2023-10-15T01:13:48.727Z,0.70
2023-10-15T01:16:19.183Z,0.90
2023-10-15T01:18:56.853Z,0.80
2023-10-15T01:21:28.489Z,0.60
2023-10-15T01:24:08.406Z,0.70
2023-10-15T01:26:37.722Z,0.70
2023-10-15T01:29:08.191Z,0.85
2023-10-15T01:31:51.749Z,0.50
2023-10-15T01:34:22.935Z,0.85
2023-10-15T01:36:51.326Z,0.68
2023-10-15T01:39:38.821Z,0.80
2023-10-15T01:42:08.410Z,0.88
2023-10-15T01:44:40.791Z,0.93
2023-10-15T01:47:09.454Z,0.70
2023-10-15T01:49:36.736Z,0.80
2023-10-15T01:52:10.233Z,0.80
2023-10-15T01:54:47.370Z,0.68
2023-10-15T01:57:17.577Z,0.65
2023-10-15T01:59:47.569Z,0.60
2023-10-15T02:02:16.540Z,0.60
2023-10-15T02:04:45.801Z,0.70
2023-10-15T02:07:15.711Z,1.08
2023-10-15T02:09:44.993Z,0.82
2023-10-15T02:12:15.976Z,0.68
2023-10-15T02:14:44.357Z,0.65
2023-10-15T02:17:15.011Z,0.80
2023-10-15T02:19:42.940Z,0.50
2023-10-15T02:22:14.201Z,0.70
2023-10-15T02:24:48.419Z,0.63
2023-10-15T02:27:25.216Z,0.60
2023-10-15T02:29:53.171Z,0.95
2023-10-15T02:32:23.771Z,0.90
2023-10-15T02:34:54.156Z,0.70
2023-10-15T02:37:25.062Z,0.65
2023-10-15T02:39:55.173Z,0.82
2023-10-15T02:42:31.724Z,0.60
2023-10-15T02:45:02.612Z,0.50
2023-10-15T02:47:32.859Z,0.75
2023-10-15T02:50:04.190Z,1.15
2023-10-15T02:52:47.660Z,1.00
2023-10-15T02:55:17.513Z,0.65
2023-10-15T02:57:45.126Z,0.82
2023-10-15T03:00:26.002Z,1.15
2023-10-15T03:02:53.473Z,0.50
2023-10-15T03:05:26.814Z,0.90
2023-10-15T03:07:54.180Z,0.50
2023-10-15T03:10:24.319Z,0.70
2023-10-15T03:12:51.502Z,0.63
2023-10-15T03:15:19.111Z,0.70
2023-10-15T03:17:46.520Z,0.50
2023-10-15T03:20:17.595Z,0.50
2023-10-15T03:22:45.928Z,0.55
2023-10-15T03:25:16.555Z,0.80
2023-10-15T03:27:48.041Z,0.70
2023-10-15T03:30:15.686Z,0.50
2023-10-15T03:32:45.818Z,0.55
2023-10-15T03:35:20.988Z,0.82
2023-10-15T03:40:32.184Z,0.47
2023-10-15T03:43:05.534Z,0.80
2023-10-15T03:45:34.532Z,0.63
2023-10-15T03:48:02.069Z,0.75
2023-10-15T03:50:29.857Z,0.70
2023-10-15T03:53:00.096Z,0.63
2023-10-15T03:55:27.399Z,0.80
2023-10-15T03:57:55.002Z,0.60
2023-10-15T04:00:37.177Z,0.63
2023-10-15T04:03:19.875Z,0.80
2023-10-15T04:06:09.519Z,0.60
2023-10-15T04:08:38.276Z,0.52
2023-10-15T04:11:08.042Z,0.52
2023-10-15T04:13:36.370Z,0.70
2023-10-15T04:16:03.643Z,0.60
2023-10-15T04:18:31.269Z,0.88
2023-10-15T04:21:00.180Z,0.73
2023-10-15T04:23:33.516Z,0.50
2023-10-15T04:26:03.543Z,0.70
2023-10-15T04:28:31.968Z,0.45
2023-10-15T04:30:59.216Z,0.80
2023-10-15T04:33:29.346Z,0.68
2023-10-15T04:35:57.645Z,0.75
2023-10-15T04:38:31.854Z,0.60
2023-10-15T04:40:59.089Z,0.50
2023-10-15T04:43:27.030Z,0.60
2023-10-15T04:45:58.006Z,0.75
2023-10-15T04:48:31.595Z,0.60
2023-10-15T04:51:17.555Z,1.25
2023-10-15T04:53:52.620Z,0.50
2023-10-15T04:56:22.911Z,0.60
2023-10-15T04:58:50.753Z,0.80
2023-10-15T05:01:18.145Z,0.60
2023-10-15T05:03:47.270Z,0.60
2023-10-15T05:06:14.767Z,0.60
2023-10-15T05:08:42.123Z,0.55
2023-10-15T05:11:10.517Z,0.55
2023-10-15T05:13:37.929Z,0.60
2023-10-15T05:16:05.500Z,0.60
2023-10-15T05:18:33.900Z,1.05
2023-10-15T05:21:04.601Z,0.65
2023-10-15T05:23:31.894Z,1.13
2023-10-15T05:25:59.181Z,0.40
2023-10-15T05:28:27.970Z,1.20
2023-10-15T05:33:23.871Z,0.60
2023-10-15T05:35:51.009Z,0.80
2023-10-15T05:38:18.852Z,0.60
2023-10-15T05:40:46.460Z,0.73
2023-10-15T05:43:13.921Z,0.70
2023-10-15T05:45:41.189Z,0.82
2023-10-15T05:48:08.679Z,0.90
2023-10-15T05:50:36.007Z,0.65
2023-10-15T05:53:03.615Z,1.00
2023-10-15T05:55:33.552Z,0.75
2023-10-15T05:58:01.083Z,0.50
2023-10-15T06:00:28.408Z,0.47
2023-10-15T06:02:57.401Z,0.90
2023-10-15T06:05:24.784Z,0.70
2023-10-15T06:07:55.923Z,0.52
2023-10-15T06:10:23.662Z,0.50
2023-10-15T06:12:50.844Z,0.50
2023-10-15T06:15:20.034Z,0.60
2023-10-15T06:17:49.296Z,0.70
2023-10-15T06:20:17.101Z,0.70
2023-10-15T06:22:45.405Z,0.52
2023-10-15T06:25:13.334Z,0.70
2023-10-15T06:27:41.145Z,0.50
2023-10-15T06:30:23.232Z,0.65
2023-10-15T06:32:51.902Z,0.80
2023-10-15T06:35:19.642Z,0.50
2023-10-15T06:37:47.769Z,0.60
2023-10-15T06:40:23.106Z,0.43
2023-10-15T06:42:52.909Z,0.43
2023-10-15T06:45:21.264Z,0.65
2023-10-15T06:47:50.518Z,0.40
2023-10-15T06:50:23.184Z,0.65
2023-10-15T06:52:53.977Z,0.70
2023-10-15T06:55:21.800Z,0.77
2023-10-15T06:57:49.671Z,0.50
2023-10-15T07:00:22.634Z,0.40
2023-10-15T07:02:54.282Z,0.50
2023-10-15T07:05:23.640Z,0.70
2023-10-15T07:10:18.606Z,0.65
2023-10-15T07:12:51.472Z,0.30
2023-10-15T07:15:21.594Z,0.80
2023-10-15T07:17:50.854Z,0.70
2023-10-15T07:20:20.043Z,0.65
2023-10-15T07:22:48.259Z,0.70
2023-10-15T07:25:16.417Z,0.73
2023-10-15T07:27:45.898Z,0.47
2023-10-15T07:30:13.829Z,0.85
2023-10-15T07:32:41.961Z,0.50
2023-10-15T07:35:12.960Z,0.63
2023-10-15T07:37:41.873Z,0.60
2023-10-15T07:40:18.004Z,0.50
2023-10-15T07:42:49.884Z,0.45
2023-10-15T07:45:18.150Z,0.80
2023-10-15T07:47:45.741Z,1.02
2023-10-15T07:50:24.790Z,0.60
2023-10-15T07:52:52.852Z,0.60
2023-10-15T07:55:20.519Z,0.70
2023-10-15T07:57:47.966Z,0.50
2023-10-15T08:00:24.455Z,0.70
2023-10-15T08:02:59.526Z,0.70
2023-10-15T08:05:31.011Z,0.60
2023-10-15T08:07:59.306Z,0.70
2023-10-15T08:10:33.203Z,0.60
2023-10-15T08:13:04.243Z,0.93
2023-10-15T08:15:35.058Z,1.05
2023-10-15T08:18:03.320Z,0.70
2023-10-15T08:20:32.767Z,0.85
2023-10-15T08:23:00.425Z,0.52
2023-10-15T08:25:27.647Z,1.05
2023-10-15T08:27:54.783Z,0.55
2023-10-15T08:30:22.885Z,0.65
2023-10-15T08:32:50.417Z,0.47
2023-10-15T08:35:18.797Z,0.60
2023-10-15T08:37:47.127Z,0.60
2023-10-15T08:40:19.870Z,0.88
2023-10-15T08:42:58.578Z,0.45
2023-10-15T08:45:28.044Z,0.65
2023-10-15T08:47:55.902Z,0.60
2023-10-15T08:50:26.648Z,0.65
2023-10-15T08:52:55.095Z,0.75
2023-10-15T08:55:25.339Z,1.13
2023-10-15T08:58:08.938Z,0.40
2023-10-15T09:00:38.151Z,0.80
2023-10-15T09:03:06.804Z,0.65
2023-10-15T09:05:35.565Z,0.70
2023-10-15T09:08:09.913Z,0.70
2023-10-15T09:10:38.520Z,0.50
2023-10-15T09:13:06.678Z,0.80
2023-10-15T09:15:34.051Z,0.80
2023-10-15T09:18:01.359Z,0.60
2023-10-15T09:20:29.235Z,0.70
2023-10-15T09:23:03.585Z,0.60
2023-10-15T09:25:31.584Z,0.70
2023-10-15T09:28:00.439Z,0.50
2023-10-15T09:32:56.080Z,0.52
2023-10-15T09:35:23.661Z,0.70
2023-10-15T09:37:51.018Z,0.50
2023-10-15T09:40:25.262Z,0.50
2023-10-15T09:42:55.675Z,0.68
2023-10-15T09:45:26.385Z,0.65
2023-10-15T09:47:58.844Z,0.60
2023-10-15T09:50:28.720Z,0.60
2023-10-15T09:53:02.462Z,0.60
2023-10-15T09:55:33.374Z,0.65
2023-10-15T09:58:10.324Z,0.70
2023-10-15T10:01:10.134Z,0.80
2023-10-15T10:03:50.327Z,0.60
2023-10-15T10:06:38.301Z,0.65
2023-10-15T10:09:25.378Z,0.70
2023-10-15T10:12:12.959Z,0.70
2023-10-15T10:14:40.140Z,0.40
2023-10-15T10:17:07.941Z,0.60
2023-10-15T10:19:35.486Z,0.70
2023-10-15T10:22:05.533Z,0.63
2023-10-15T10:24:43.382Z,0.82
2023-10-15T10:27:17.345Z,0.50
2023-10-15T10:29:46.672Z,0.70
2023-10-15T10:32:16.689Z,0.40
2023-10-15T10:34:46.064Z,0.60
2023-10-15T10:37:23.214Z,0.70
2023-10-15T10:39:50.677Z,0.80
2023-10-15T10:42:22.992Z,0.80
2023-10-15T10:44:50.505Z,0.57
2023-10-15T10:47:22.898Z,0.60
2023-10-15T10:50:00.927Z,0.70
2023-10-15T10:52:31.227Z,0.68
2023-10-15T10:55:20.740Z,0.70
2023-10-15T10:57:51.955Z,0.60
2023-10-15T11:00:19.243Z,0.55
2023-10-15T11:02:46.431Z,0.60
2023-10-15T11:05:13.861Z,0.55
2023-10-15T11:07:42.257Z,0.60
2023-10-15T11:10:10.779Z,0.50
2023-10-15T11:12:39.189Z,0.60
2023-10-15T11:15:09.440Z,0.80
2023-10-15T11:17:36.834Z,0.50
2023-10-15T11:20:05.383Z,0.70
2023-10-15T11:22:32.645Z,0.60
2023-10-15T11:24:59.911Z,0.60
2023-10-15T11:27:27.698Z,0.50
2023-10-15T11:29:55.067Z,0.32
2023-10-15T11:32:22.887Z,0.40
2023-10-15T11:34:50.253Z,0.57
2023-10-15T11:37:18.377Z,0.70
2023-10-15T11:39:49.198Z,0.65
2023-10-15T11:42:20.356Z,0.57
2023-10-15T11:44:56.546Z,0.82
2023-10-15T11:47:28.874Z,0.43
2023-10-15T11:49:56.267Z,0.57
2023-10-15T11:52:23.850Z,0.50
2023-10-15T11:54:52.457Z,0.40
2023-10-15T11:59:51.195Z,0.70
2023-10-15T12:02:20.419Z,0.47
2023-10-15T12:04:53.313Z,0.40
2023-10-15T12:07:23.927Z,1.00
2023-10-15T12:09:51.807Z,0.55
2023-10-15T12:12:19.775Z,0.50
2023-10-15T12:14:47.543Z,0.52
2023-10-15T12:17:17.753Z,0.47
2023-10-15T12:19:46.559Z,0.43
2023-10-15T12:22:17.164Z,0.50
2023-10-15T12:24:45.128Z,0.70
2023-10-15T12:27:12.695Z,0.50
2023-10-15T12:29:40.727Z,0.57
2023-10-15T12:32:11.838Z,0.43
2023-10-15T12:34:39.267Z,0.60
2023-10-15T12:37:13.807Z,0.60
2023-10-15T12:39:47.058Z,1.10
2023-10-15T12:42:14.784Z,0.60
2023-10-15T12:44:41.981Z,0.57
2023-10-15T12:47:09.913Z,0.55
2023-10-15T12:49:37.584Z,0.80
2023-10-15T12:52:05.371Z,1.20
2023-10-15T12:54:34.855Z,0.50
2023-10-15T12:57:04.208Z,0.60
2023-10-15T12:59:31.965Z,0.70
2023-10-15T13:01:59.600Z,0.50
2023-10-15T13:04:26.924Z,0.60
2023-10-15T13:06:54.630Z,0.90
2023-10-15T13:09:27.073Z,0.40
2023-10-15T13:11:54.923Z,0.77
2023-10-15T13:14:22.272Z,0.75
2023-10-15T13:16:52.169Z,0.70
2023-10-15T13:19:21.841Z,0.77
2023-10-15T13:21:49.053Z,0.70
2023-10-15T13:24:16.553Z,0.60
2023-10-15T13:26:46.439Z,0.82
2023-10-15T13:29:13.896Z,0.60
2023-10-15T13:31:41.248Z,0.60
2023-10-15T13:34:10.155Z,0.60
2023-10-15T13:36:37.316Z,0.55
2023-10-15T13:39:08.314Z,0.70
2023-10-15T13:41:35.799Z,0.63
2023-10-15T13:44:03.136Z,0.65
2023-10-15T13:46:30.397Z,0.63
2023-10-15T13:48:57.669Z,0.57
2023-10-15T13:51:26.441Z,0.90
2023-10-15T13:53:53.679Z,0.70
2023-10-15T13:56:21.265Z,0.50
2023-10-15T13:58:49.005Z,0.60
2023-10-15T14:01:17.115Z,0.85
2023-10-15T14:03:46.612Z,0.70
2023-10-15T14:06:14.006Z,0.85
2023-10-15T14:08:41.391Z,0.60
2023-10-15T14:11:11.370Z,0.47
2023-10-15T14:13:38.955Z,0.80
2023-10-15T14:16:06.343Z,0.43
2023-10-15T14:18:34.845Z,0.80
2023-10-15T14:21:02.655Z,0.90
2023-10-15T14:23:30.465Z,0.88
2023-10-15T14:25:57.702Z,0.50
2023-10-15T14:28:25.995Z,0.52
2023-10-15T14:30:53.602Z,0.60
2023-10-15T14:33:20.898Z,0.60
2023-10-15T14:35:49.365Z,0.82
2023-10-15T14:38:16.581Z,0.45
2023-10-15T14:40:46.154Z,1.10
2023-10-15T14:43:13.580Z,0.57
2023-10-15T14:45:40.829Z,0.55
2023-10-15T14:48:09.440Z,0.50
2023-10-15T14:50:39.112Z,0.40
2023-10-15T14:53:07.139Z,0.50
2023-10-15T14:55:36.128Z,0.50
2023-10-15T15:00:30.562Z,0.45
2023-10-15T15:02:57.823Z,0.50
2023-10-15T15:05:25.097Z,0.75
2023-10-15T15:07:53.260Z,0.60
2023-10-15T15:10:20.603Z,0.68
2023-10-15T15:12:47.850Z,0.52
2023-10-15T15:15:18.098Z,1.00
2023-10-15T15:17:45.376Z,0.45
2023-10-15T15:20:13.008Z,0.60
2023-10-15T15:22:42.532Z,0.60
2023-10-15T15:25:10.154Z,0.60
2023-10-15T15:27:37.589Z,0.70
2023-10-15T15:30:09.334Z,0.70
2023-10-15T15:32:38.078Z,0.70
2023-10-15T15:37:36.867Z,0.70
2023-10-15T15:40:08.696Z,0.70
2023-10-15T15:42:36.192Z,0.50
2023-10-15T15:45:03.403Z,0.60
2023-10-15T15:47:30.691Z,0.80
2023-10-15T15:49:57.990Z,0.52
2023-10-15T15:52:25.266Z,0.70
2023-10-15T15:54:52.741Z,0.57
2023-10-15T15:57:20.104Z,0.80
2023-10-15T15:59:48.930Z,0.75
2023-10-15T16:02:16.259Z,0.50
2023-10-15T16:04:43.709Z,0.50
2023-10-15T16:07:11.195Z,0.57
2023-10-15T16:09:39.001Z,0.70
2023-10-15T16:12:06.334Z,0.80
2023-10-15T16:14:35.026Z,1.15
2023-10-15T16:17:02.377Z,0.65
2023-10-15T16:19:29.861Z,0.70
2023-10-15T16:21:57.254Z,1.45
2023-10-15T16:24:24.627Z,0.77
2023-10-15T16:26:52.058Z,0.40
2023-10-15T16:29:19.289Z,0.70
2023-10-15T16:31:46.682Z,0.80
2023-10-15T16:34:14.087Z,0.70
2023-10-15T16:36:41.307Z,0.90
2023-10-15T16:39:08.772Z,0.82
2023-10-15T16:41:35.939Z,0.68
2023-10-15T16:44:03.249Z,0.60
2023-10-15T16:46:30.978Z,0.70
2023-10-15T16:48:58.266Z,0.77
2023-10-15T16:51:26.535Z,0.77
2023-10-15T16:53:54.515Z,0.80
2023-10-15T16:56:21.998Z,0.55
2023-10-15T16:58:50.465Z,0.55
2023-10-15T17:01:18.636Z,0.60
2023-10-15T17:03:45.992Z,0.90
2023-10-15T17:06:13.370Z,0.70
2023-10-15T17:08:41.025Z,0.68
2023-10-15T17:11:08.232Z,0.65
2023-10-15T17:13:35.437Z,0.70
2023-10-15T17:16:02.629Z,0.65
2023-10-15T17:18:29.914Z,0.82
2023-10-15T17:20:57.660Z,0.77
2023-10-15T17:23:25.517Z,0.60
2023-10-15T17:25:52.766Z,0.85
2023-10-15T17:28:21.631Z,0.70
2023-10-15T17:30:48.945Z,0.60
2023-10-15T17:33:16.148Z,0.55
2023-10-15T17:35:43.370Z,0.70
2023-10-15T17:38:11.597Z,0.60
2023-10-15T17:40:42.380Z,0.80
2023-10-15T17:43:10.815Z,0.77
2023-10-15T17:45:39.169Z,0.95
2023-10-15T17:48:06.895Z,0.63
2023-10-15T17:50:34.131Z,0.70
2023-10-15T17:53:04.764Z,0.73
2023-10-15T17:55:31.908Z,0.90
2023-10-15T17:57:59.077Z,1.20
2023-10-15T18:00:26.530Z,0.90
2023-10-15T18:02:53.920Z,0.85
2023-10-15T18:05:21.253Z,0.60
2023-10-15T18:07:50.414Z,0.98
2023-10-15T18:10:17.667Z,1.00
2023-10-15T18:12:44.938Z,1.17
2023-10-15T18:15:13.073Z,1.27
2023-10-15T18:17:40.458Z,1.00
2023-10-15T18:20:07.987Z,0.98
2023-10-15T18:22:35.143Z,1.15
2023-10-15T18:25:02.343Z,1.08
2023-10-15T18:27:29.888Z,0.90
2023-10-15T18:29:57.020Z,1.13
2023-10-15T18:32:24.193Z,1.27
2023-10-15T18:34:51.409Z,1.30
2023-10-15T18:37:18.634Z,1.25
2023-10-15T18:39:45.873Z,1.17
2023-10-15T18:42:13.650Z,1.20
2023-10-15T18:44:41.053Z,1.50
2023-10-15T18:47:08.445Z,1.38
2023-10-15T18:49:37.118Z,1.60
2023-10-15T18:52:04.346Z,1.40
2023-10-15T18:54:31.524Z,1.58
2023-10-15T18:56:58.832Z,1.88
2023-10-15T18:59:26.187Z,1.30
2023-10-15T19:01:53.430Z,1.38
2023-10-15T19:04:20.719Z,1.20
2023-10-15T19:06:48.146Z,1.48
2023-10-15T19:09:17.506Z,1.77
2023-10-15T19:11:45.310Z,1.77
2023-10-15T19:14:13.787Z,1.70
2023-10-15T19:16:41.307Z,1.75
2023-10-15T19:19:11.876Z,1.75
2023-10-15T19:21:39.446Z,1.75
2023-10-15T19:24:07.026Z,1.85
2023-10-15T19:26:34.279Z,1.48
2023-10-15T19:29:01.470Z,1.73
2023-10-15T19:31:29.510Z,2.08
2023-10-15T19:33:56.817Z,1.80
2023-10-15T19:36:24.174Z,1.85
2023-10-15T19:38:51.371Z,1.73
2023-10-15T19:41:18.670Z,1.83
2023-10-15T19:43:46.603Z,2.30
2023-10-15T19:46:15.189Z,2.13
2023-10-15T19:48:43.232Z,2.00
2023-10-15T19:51:10.560Z,1.83
2023-10-15T19:53:37.774Z,2.10
2023-10-15T19:56:05.072Z,1.73
2023-10-15T19:58:32.362Z,2.10
2023-10-15T20:01:00.344Z,1.63
2023-10-15T20:03:28.181Z,1.85
2023-10-15T20:05:55.763Z,2.03
2023-10-15T20:08:25.839Z,2.25
2023-10-15T20:10:53.765Z,1.80
2023-10-15T20:13:21.138Z,1.85
2023-10-15T20:15:48.319Z,2.05
2023-10-15T20:18:15.647Z,2.10
2023-10-15T20:20:43.087Z,2.33
2023-10-15T20:23:10.294Z,2.40
2023-10-15T20:25:37.472Z,2.35
2023-10-15T20:28:06.510Z,2.33
2023-10-15T20:30:33.805Z,2.17
2023-10-15T20:33:01.140Z,2.10
2023-10-15T20:35:28.533Z,2.35
2023-10-15T20:37:56.222Z,2.33
2023-10-15T20:40:26.802Z,2.72
2023-10-15T20:42:54.634Z,2.30
2023-10-15T20:45:22.051Z,1.80
2023-10-15T20:47:50.387Z,1.65
2023-10-15T20:50:20.049Z,2.30
2023-10-15T20:52:48.115Z,2.03
2023-10-15T20:55:16.210Z,2.00
2023-10-15T20:57:44.048Z,1.90
2023-10-15T21:00:13.004Z,1.83
2023-10-15T21:02:44.518Z,2.05
2023-10-15T21:05:12.885Z,1.90
2023-10-15T21:07:40.946Z,1.70
2023-10-15T21:10:10.703Z,1.55
2023-10-15T21:12:38.104Z,1.85
2023-10-15T21:15:07.537Z,1.95
2023-10-15T21:17:35.189Z,1.95
2023-10-15T21:20:08.768Z,2.00
2023-10-15T21:22:36.431Z,1.90
2023-10-15T21:25:04.098Z,1.75
2023-10-15T21:27:31.649Z,2.33
2023-10-15T21:29:59.031Z,1.63
2023-10-15T21:32:26.265Z,1.80
2023-10-15T21:34:53.541Z,1.80
2023-10-15T21:37:20.699Z,1.83
2023-10-15T21:39:49.571Z,1.77
2023-10-15T21:42:16.808Z,1.90
2023-10-15T21:44:44.662Z,1.50
2023-10-15T21:47:12.088Z,1.75
2023-10-15T21:49:39.319Z,1.75
2023-10-15T21:52:09.049Z,1.95
2023-10-15T21:54:36.306Z,2.70
2023-10-15T21:57:03.525Z,1.67
2023-10-15T21:59:30.680Z,2.00
2023-10-15T22:01:57.877Z,1.80
2023-10-15T22:04:25.540Z,1.70
2023-10-15T22:06:53.749Z,1.65
2023-10-15T22:09:21.174Z,1.70
2023-10-15T22:11:49.651Z,1.52
2023-10-15T22:14:16.862Z,1.23
2023-10-15T22:16:45.137Z,1.48
2023-10-15T22:19:14.609Z,1.98
2023-10-15T22:21:45.802Z,1.60
2023-10-15T22:24:14.198Z,1.80
2023-10-15T22:26:44.504Z,2.00
2023-10-15T22:29:17.328Z,1.70
2023-10-15T22:31:47.595Z,1.67
2023-10-15T22:34:14.907Z,1.40
2023-10-15T22:36:42.163Z,1.92
2023-10-15T22:39:09.488Z,1.55
2023-10-15T22:41:36.790Z,1.55
2023-10-15T22:44:06.400Z,1.33
2023-10-15T22:46:34.982Z,1.42
2023-10-15T22:49:02.478Z,1.67
2023-10-15T22:51:29.753Z,1.85
2023-10-15T22:53:57.062Z,1.50
2023-10-15T22:56:24.203Z,1.58
2023-10-15T22:58:51.438Z,1.60
2023-10-15T23:01:20.217Z,1.70
2023-10-15T23:06:16.034Z,1.42
2023-10-15T23:08:44.437Z,1.63
2023-10-15T23:11:12.694Z,1.67
2023-10-15T23:13:40.573Z,1.83
2023-10-15T23:16:10.178Z,1.20
2023-10-15T23:18:37.409Z,1.55
2023-10-15T23:21:09.088Z,1.48
2023-10-15T23:23:36.778Z,1.65
2023-10-15T23:26:04.197Z,1.73
2023-10-15T23:28:32.648Z,2.08
2023-10-15T23:31:01.768Z,1.67
2023-10-15T23:33:32.276Z,2.10
2023-10-15T23:36:00.207Z,1.58
2023-10-15T23:38:27.704Z,1.40
2023-10-15T23:40:54.853Z,1.70
2023-10-15T23:43:25.583Z,1.70
2023-10-15T23:46:07.513Z,1.85
2023-10-15T23:48:38.551Z,1.98
2023-10-15T23:51:12.381Z,1.60
2023-10-15T23:53:44.271Z,1.80
2023-10-15T23:56:23.958Z,1.60
2023-10-15T23:58:52.148Z,1.85
